sensor_id;sensor_type;location;lat;lon;timestamp;P1;durP1;ratioP1;P2;durP2;ratioP2
291;SDS011;23311;48.776;9.162;2023-12-20T00:02:13;1.43;;;1.03;;
291;SDS011;23311;48.776;9.162;2023-12-20T00:04:41;1.87;;;1.13;;
291;SDS011;23311;48.776;9.162;2023-12-20T00:07:09;1.90;;;1.40;;
291;SDS011;23311;48.776;9.162;2023-12-20T00:09:38;1.80;;;1.30;;
291;SDS011;23311;48.776;9.162;2023-12-20T00:12:06;2.43;;;1.20;;
291;SDS011;23311;48.776;9.162;2023-12-20T00:14:36;1.83;;;1.27;;
291;SDS011;23311;48.776;9.162;2023-12-20T00:17:04;1.83;;;1.20;;
291;SDS011;23311;48.776;9.162;2023-12-20T00:19:32;1.90;;;1.30;;
291;SDS011;23311;48.776;9.162;2023-12-20T00:22:00;1.67;;;1.10;;
291;SDS011;23311;48.776;9.162;2023-12-20T00:24:28;1.20;;;1.03;;
291;SDS011;23311;48.776;9.162;2023-12-20T00:26:59;1.23;;;0.73;;
291;SDS011;23311;48.776;9.162;2023-12-20T00:29:27;2.90;;;1.00;;
291;SDS011;23311;48.776;9.162;2023-12-20T00:31:56;1.30;;;1.00;;
291;SDS011;23311;48.776;9.162;2023-12-20T00:34:24;1.57;;;1.03;;
291;SDS011;23311;48.776;9.162;2023-12-20T00:36:53;1.50;;;1.10;;
291;SDS011;23311;48.776;9.162;2023-12-20T00:39:21;1.73;;;1.30;;
291;SDS011;23311;48.776;9.162;2023-12-20T00:41:50;1.90;;;1.20;;
291;SDS011;23311;48.776;9.162;2023-12-20T00:44:18;2.10;;;1.23;;
291;SDS011;23311;48.776;9.162;2023-12-20T00:46:46;1.53;;;0.97;;
291;SDS011;23311;48.776;9.162;2023-12-20T00:49:16;1.53;;;1.00;;
291;SDS011;23311;48.776;9.162;2023-12-20T00:51:44;1.60;;;1.10;;
291;SDS011;23311;48.776;9.162;2023-12-20T00:54:13;1.23;;;0.80;;
291;SDS011;23311;48.776;9.162;2023-12-20T00:56:41;1.50;;;1.00;;
291;SDS011;23311;48.776;9.162;2023-12-20T00:59:09;2.07;;;1.17;;
291;SDS011;23311;48.776;9.162;2023-12-20T01:01:37;1.40;;;1.10;;
291;SDS011;23311;48.776;9.162;2023-12-20T01:04:06;1.73;;;1.10;;
291;SDS011;23311;48.776;9.162;2023-12-20T01:06:35;1.77;;;1.00;;
291;SDS011;23311;48.776;9.162;2023-12-20T01:09:03;1.60;;;1.00;;
291;SDS011;23311;48.776;9.162;2023-12-20T01:11:31;1.67;;;1.10;;
291;SDS011;23311;48.776;9.162;2023-12-20T01:14:00;1.20;;;1.00;;
291;SDS011;23311;48.776;9.162;2023-12-20T01:16:28;1.80;;;1.13;;
291;SDS011;23311;48.776;9.162;2023-12-20T01:18:56;2.13;;;1.17;;
291;SDS011;23311;48.776;9.162;2023-12-20T01:21:24;1.50;;;1.13;;
291;SDS011;23311;48.776;9.162;2023-12-20T01:23:53;1.73;;;1.27;;
291;SDS011;23311;48.776;9.162;2023-12-20T01:26:24;2.60;;;1.10;;
291;SDS011;23311;48.776;9.162;2023-12-20T01:28:52;2.70;;;1.23;;
291;SDS011;23311;48.776;9.162;2023-12-20T01:31:20;1.87;;;0.97;;
291;SDS011;23311;48.776;9.162;2023-12-20T01:33:48;3.20;;;1.30;;
291;SDS011;23311;48.776;9.162;2023-12-20T01:36:16;1.20;;;0.90;;
291;SDS011;23311;48.776;9.162;2023-12-20T01:38:44;1.57;;;1.07;;
291;SDS011;23311;48.776;9.162;2023-12-20T01:41:14;1.83;;;1.30;;
291;SDS011;23311;48.776;9.162;2023-12-20T01:43:42;1.90;;;1.30;;
291;SDS011;23311;48.776;9.162;2023-12-20T01:46:17;1.80;;;1.07;;
291;SDS011;23311;48.776;9.162;2023-12-20T01:48:46;1.27;;;1.07;;
291;SDS011;23311;48.776;9.162;2023-12-20T01:51:15;1.10;;;0.80;;
291;SDS011;23311;48.776;9.162;2023-12-20T01:53:44;1.40;;;1.00;;
291;SDS011;23311;48.776;9.162;2023-12-20T01:56:13;1.47;;;0.90;;
291;SDS011;23311;48.776;9.162;2023-12-20T01:58:43;1.90;;;0.97;;
291;SDS011;23311;48.776;9.162;2023-12-20T02:01:12;1.47;;;0.97;;
291;SDS011;23311;48.776;9.162;2023-12-20T02:03:41;1.60;;;1.10;;
291;SDS011;23311;48.776;9.162;2023-12-20T02:06:09;5.00;;;1.30;;
291;SDS011;23311;48.776;9.162;2023-12-20T02:08:38;1.67;;;1.00;;
291;SDS011;23311;48.776;9.162;2023-12-20T02:11:06;2.40;;;1.00;;
291;SDS011;23311;48.776;9.162;2023-12-20T02:13:36;2.17;;;1.37;;
291;SDS011;23311;48.776;9.162;2023-12-20T02:16:04;2.10;;;1.53;;
291;SDS011;23311;48.776;9.162;2023-12-20T02:18:34;1.70;;;1.20;;
291;SDS011;23311;48.776;9.162;2023-12-20T02:21:03;1.67;;;1.20;;
291;SDS011;23311;48.776;9.162;2023-12-20T02:23:34;1.80;;;1.10;;
291;SDS011;23311;48.776;9.162;2023-12-20T02:26:07;1.90;;;1.00;;
291;SDS011;23311;48.776;9.162;2023-12-20T02:28:35;4.00;;;1.50;;
291;SDS011;23311;48.776;9.162;2023-12-20T02:31:03;2.13;;;1.33;;
291;SDS011;23311;48.776;9.162;2023-12-20T02:33:32;1.67;;;1.10;;
291;SDS011;23311;48.776;9.162;2023-12-20T02:36:00;1.83;;;1.00;;
291;SDS011;23311;48.776;9.162;2023-12-20T02:38:28;1.80;;;1.33;;
291;SDS011;23311;48.776;9.162;2023-12-20T02:40:57;2.80;;;1.33;;
291;SDS011;23311;48.776;9.162;2023-12-20T02:43:25;1.70;;;1.10;;
291;SDS011;23311;48.776;9.162;2023-12-20T02:45:53;1.60;;;1.00;;
291;SDS011;23311;48.776;9.162;2023-12-20T02:48:22;3.20;;;1.27;;
291;SDS011;23311;48.776;9.162;2023-12-20T02:50:50;2.97;;;1.53;;
291;SDS011;23311;48.776;9.162;2023-12-20T02:53:19;1.70;;;1.27;;
291;SDS011;23311;48.776;9.162;2023-12-20T02:55:47;1.90;;;0.90;;
291;SDS011;23311;48.776;9.162;2023-12-20T02:58:16;2.00;;;1.20;;
291;SDS011;23311;48.776;9.162;2023-12-20T03:00:45;1.57;;;1.00;;
291;SDS011;23311;48.776;9.162;2023-12-20T03:03:13;2.20;;;1.20;;
291;SDS011;23311;48.776;9.162;2023-12-20T03:05:41;2.50;;;1.47;;
291;SDS011;23311;48.776;9.162;2023-12-20T03:08:09;1.40;;;1.17;;
291;SDS011;23311;48.776;9.162;2023-12-20T03:10:37;2.67;;;1.20;;
291;SDS011;23311;48.776;9.162;2023-12-20T03:13:05;1.60;;;1.10;;
291;SDS011;23311;48.776;9.162;2023-12-20T03:15:35;1.73;;;1.17;;
291;SDS011;23311;48.776;9.162;2023-12-20T03:18:04;1.97;;;1.37;;
291;SDS011;23311;48.776;9.162;2023-12-20T03:20:32;1.83;;;1.10;;
291;SDS011;23311;48.776;9.162;2023-12-20T03:23:00;1.70;;;1.27;;
291;SDS011;23311;48.776;9.162;2023-12-20T03:25:29;2.50;;;1.17;;
291;SDS011;23311;48.776;9.162;2023-12-20T03:27:57;1.33;;;1.10;;
291;SDS011;23311;48.776;9.162;2023-12-20T03:30:25;2.63;;;1.40;;
291;SDS011;23311;48.776;9.162;2023-12-20T03:32:54;2.43;;;1.37;;
291;SDS011;23311;48.776;9.162;2023-12-20T03:35:23;1.20;;;0.90;;
291;SDS011;23311;48.776;9.162;2023-12-20T03:37:51;1.20;;;0.70;;
291;SDS011;23311;48.776;9.162;2023-12-20T03:40:19;0.93;;;0.53;;
291;SDS011;23311;48.776;9.162;2023-12-20T03:42:49;1.47;;;0.70;;
291;SDS011;23311;48.776;9.162;2023-12-20T03:45:17;2.40;;;0.83;;
291;SDS011;23311;48.776;9.162;2023-12-20T03:47:45;1.10;;;0.60;;
291;SDS011;23311;48.776;9.162;2023-12-20T03:50:15;1.33;;;0.90;;
291;SDS011;23311;48.776;9.162;2023-12-20T03:52:43;0.70;;;0.30;;
291;SDS011;23311;48.776;9.162;2023-12-20T03:55:11;0.70;;;0.30;;
291;SDS011;23311;48.776;9.162;2023-12-20T03:57:39;0.73;;;0.33;;
291;SDS011;23311;48.776;9.162;2023-12-20T04:00:08;0.70;;;0.30;;
291;SDS011;23311;48.776;9.162;2023-12-20T04:02:36;1.03;;;0.80;;
291;SDS011;23311;48.776;9.162;2023-12-20T04:05:05;1.23;;;0.40;;
291;SDS011;23311;48.776;9.162;2023-12-20T04:07:36;0.90;;;0.50;;
291;SDS011;23311;48.776;9.162;2023-12-20T04:10:04;0.70;;;0.30;;
291;SDS011;23311;48.776;9.162;2023-12-20T04:12:33;0.70;;;0.30;;
291;SDS011;23311;48.776;9.162;2023-12-20T04:15:01;0.70;;;0.30;;
291;SDS011;23311;48.776;9.162;2023-12-20T04:17:35;0.90;;;0.40;;
291;SDS011;23311;48.776;9.162;2023-12-20T04:20:03;0.70;;;0.30;;
291;SDS011;23311;48.776;9.162;2023-12-20T04:22:33;0.80;;;0.30;;
291;SDS011;23311;48.776;9.162;2023-12-20T04:25:02;0.63;;;0.30;;
291;SDS011;23311;48.776;9.162;2023-12-20T04:27:31;0.60;;;0.30;;
291;SDS011;23311;48.776;9.162;2023-12-20T04:29:59;0.60;;;0.30;;
291;SDS011;23311;48.776;9.162;2023-12-20T04:32:27;0.77;;;0.40;;
291;SDS011;23311;48.776;9.162;2023-12-20T04:34:56;0.70;;;0.30;;
291;SDS011;23311;48.776;9.162;2023-12-20T04:37:24;1.47;;;0.33;;
291;SDS011;23311;48.776;9.162;2023-12-20T04:39:52;0.60;;;0.30;;
291;SDS011;23311;48.776;9.162;2023-12-20T04:42:22;0.80;;;0.30;;
291;SDS011;23311;48.776;9.162;2023-12-20T04:44:50;0.80;;;0.30;;
291;SDS011;23311;48.776;9.162;2023-12-20T04:47:18;0.80;;;0.37;;
291;SDS011;23311;48.776;9.162;2023-12-20T04:49:46;0.70;;;0.30;;
291;SDS011;23311;48.776;9.162;2023-12-20T04:52:15;0.70;;;0.40;;
291;SDS011;23311;48.776;9.162;2023-12-20T04:54:43;0.70;;;0.30;;
291;SDS011;23311;48.776;9.162;2023-12-20T04:57:11;0.80;;;0.30;;
291;SDS011;23311;48.776;9.162;2023-12-20T04:59:41;1.23;;;0.20;;
291;SDS011;23311;48.776;9.162;2023-12-20T05:02:09;1.00;;;0.40;;
291;SDS011;23311;48.776;9.162;2023-12-20T05:04:37;0.80;;;0.40;;
291;SDS011;23311;48.776;9.162;2023-12-20T05:07:05;0.70;;;0.30;;
291;SDS011;23311;48.776;9.162;2023-12-20T05:09:33;1.10;;;0.40;;
291;SDS011;23311;48.776;9.162;2023-12-20T05:12:01;1.30;;;0.50;;
291;SDS011;23311;48.776;9.162;2023-12-20T05:14:29;3.67;;;0.50;;
291;SDS011;23311;48.776;9.162;2023-12-20T05:16:59;1.03;;;0.30;;
291;SDS011;23311;48.776;9.162;2023-12-20T05:19:27;0.60;;;0.27;;
291;SDS011;23311;48.776;9.162;2023-12-20T05:21:55;1.37;;;0.70;;
291;SDS011;23311;48.776;9.162;2023-12-20T05:24:23;0.90;;;0.30;;
291;SDS011;23311;48.776;9.162;2023-12-20T05:26:51;2.80;;;0.93;;
291;SDS011;23311;48.776;9.162;2023-12-20T05:29:20;1.20;;;0.40;;
291;SDS011;23311;48.776;9.162;2023-12-20T05:31:48;1.30;;;0.60;;
291;SDS011;23311;48.776;9.162;2023-12-20T05:34:17;1.00;;;0.50;;
291;SDS011;23311;48.776;9.162;2023-12-20T05:36:46;1.47;;;0.40;;
291;SDS011;23311;48.776;9.162;2023-12-20T05:39:14;1.03;;;0.47;;
291;SDS011;23311;48.776;9.162;2023-12-20T05:41:42;1.17;;;0.57;;
291;SDS011;23311;48.776;9.162;2023-12-20T05:44:10;0.80;;;0.40;;
291;SDS011;23311;48.776;9.162;2023-12-20T05:46:38;0.83;;;0.47;;
291;SDS011;23311;48.776;9.162;2023-12-20T05:49:07;2.00;;;0.87;;
291;SDS011;23311;48.776;9.162;2023-12-20T05:51:37;1.83;;;0.70;;
291;SDS011;23311;48.776;9.162;2023-12-20T05:54:05;0.83;;;0.50;;
291;SDS011;23311;48.776;9.162;2023-12-20T05:56:33;0.83;;;0.33;;
291;SDS011;23311;48.776;9.162;2023-12-20T05:59:01;0.77;;;0.30;;
291;SDS011;23311;48.776;9.162;2023-12-20T06:01:29;0.97;;;0.47;;
291;SDS011;23311;48.776;9.162;2023-12-20T06:03:57;1.23;;;0.50;;
291;SDS011;23311;48.776;9.162;2023-12-20T06:06:26;0.93;;;0.50;;
291;SDS011;23311;48.776;9.162;2023-12-20T06:08:55;0.97;;;0.40;;
291;SDS011;23311;48.776;9.162;2023-12-20T06:11:23;0.77;;;0.33;;
291;SDS011;23311;48.776;9.162;2023-12-20T06:13:51;2.30;;;2.20;;
291;SDS011;23311;48.776;9.162;2023-12-20T06:16:20;0.80;;;0.40;;
291;SDS011;23311;48.776;9.162;2023-12-20T06:18:48;1.00;;;0.50;;
291;SDS011;23311;48.776;9.162;2023-12-20T06:21:16;1.20;;;0.60;;
291;SDS011;23311;48.776;9.162;2023-12-20T06:23:44;0.80;;;0.57;;
291;SDS011;23311;48.776;9.162;2023-12-20T06:26:14;1.00;;;0.50;;
291;SDS011;23311;48.776;9.162;2023-12-20T06:28:42;1.13;;;0.70;;
291;SDS011;23311;48.776;9.162;2023-12-20T06:31:10;1.70;;;0.93;;
291;SDS011;23311;48.776;9.162;2023-12-20T06:33:38;1.57;;;0.77;;
291;SDS011;23311;48.776;9.162;2023-12-20T06:36:10;1.70;;;0.90;;
291;SDS011;23311;48.776;9.162;2023-12-20T06:38:39;1.30;;;0.70;;
291;SDS011;23311;48.776;9.162;2023-12-20T06:41:08;1.60;;;0.80;;
291;SDS011;23311;48.776;9.162;2023-12-20T06:43:41;1.30;;;0.80;;
291;SDS011;23311;48.776;9.162;2023-12-20T06:46:15;1.00;;;0.70;;
291;SDS011;23311;48.776;9.162;2023-12-20T06:48:44;1.10;;;0.60;;
291;SDS011;23311;48.776;9.162;2023-12-20T06:51:14;3.13;;;1.13;;
291;SDS011;23311;48.776;9.162;2023-12-20T06:53:42;2.00;;;1.07;;
291;SDS011;23311;48.776;9.162;2023-12-20T06:56:11;1.30;;;0.90;;
291;SDS011;23311;48.776;9.162;2023-12-20T06:58:45;1.10;;;0.80;;
291;SDS011;23311;48.776;9.162;2023-12-20T07:01:13;1.90;;;0.53;;
291;SDS011;23311;48.776;9.162;2023-12-20T07:03:42;2.10;;;0.80;;
291;SDS011;23311;48.776;9.162;2023-12-20T07:06:10;4.73;;;1.43;;
291;SDS011;23311;48.776;9.162;2023-12-20T07:08:40;1.20;;;0.87;;
291;SDS011;23311;48.776;9.162;2023-12-20T07:11:14;1.40;;;0.80;;
291;SDS011;23311;48.776;9.162;2023-12-20T07:13:42;1.90;;;1.23;;
291;SDS011;23311;48.776;9.162;2023-12-20T07:16:11;2.33;;;0.80;;
291;SDS011;23311;48.776;9.162;2023-12-20T07:18:39;2.03;;;0.73;;
291;SDS011;23311;48.776;9.162;2023-12-20T07:21:08;2.20;;;1.00;;
291;SDS011;23311;48.776;9.162;2023-12-20T07:23:36;1.20;;;0.83;;
291;SDS011;23311;48.776;9.162;2023-12-20T07:26:04;0.90;;;0.60;;
291;SDS011;23311;48.776;9.162;2023-12-20T07:28:32;1.33;;;0.97;;
291;SDS011;23311;48.776;9.162;2023-12-20T07:31:00;1.90;;;1.40;;
291;SDS011;23311;48.776;9.162;2023-12-20T07:33:30;2.47;;;1.50;;
291;SDS011;23311;48.776;9.162;2023-12-20T07:36:05;1.60;;;1.47;;
291;SDS011;23311;48.776;9.162;2023-12-20T07:38:33;2.57;;;2.00;;
291;SDS011;23311;48.776;9.162;2023-12-20T07:41:02;1.97;;;1.83;;
291;SDS011;23311;48.776;9.162;2023-12-20T07:43:30;2.80;;;2.00;;
291;SDS011;23311;48.776;9.162;2023-12-20T07:46:03;2.93;;;1.83;;
291;SDS011;23311;48.776;9.162;2023-12-20T07:48:33;3.23;;;3.03;;
291;SDS011;23311;48.776;9.162;2023-12-20T07:51:03;3.30;;;2.70;;
291;SDS011;23311;48.776;9.162;2023-12-20T07:53:32;3.43;;;2.37;;
291;SDS011;23311;48.776;9.162;2023-12-20T07:56:13;3.70;;;2.17;;
291;SDS011;23311;48.776;9.162;2023-12-20T07:58:41;4.17;;;2.43;;
291;SDS011;23311;48.776;9.162;2023-12-20T08:01:18;3.53;;;2.43;;
291;SDS011;23311;48.776;9.162;2023-12-20T08:03:49;3.67;;;2.60;;
291;SDS011;23311;48.776;9.162;2023-12-20T08:06:18;4.03;;;3.20;;
291;SDS011;23311;48.776;9.162;2023-12-20T08:08:47;3.07;;;2.73;;
291;SDS011;23311;48.776;9.162;2023-12-20T08:11:27;5.50;;;4.20;;
291;SDS011;23311;48.776;9.162;2023-12-20T08:13:55;4.70;;;3.27;;
291;SDS011;23311;48.776;9.162;2023-12-20T08:16:23;3.27;;;3.00;;
291;SDS011;23311;48.776;9.162;2023-12-20T08:18:53;3.50;;;2.60;;
291;SDS011;23311;48.776;9.162;2023-12-20T08:21:21;4.10;;;3.00;;
291;SDS011;23311;48.776;9.162;2023-12-20T08:23:49;3.30;;;2.50;;
291;SDS011;23311;48.776;9.162;2023-12-20T08:26:18;4.00;;;2.73;;
291;SDS011;23311;48.776;9.162;2023-12-20T08:28:49;2.97;;;2.40;;
291;SDS011;23311;48.776;9.162;2023-12-20T08:31:17;3.87;;;2.50;;
291;SDS011;23311;48.776;9.162;2023-12-20T08:33:46;3.40;;;2.30;;
291;SDS011;23311;48.776;9.162;2023-12-20T08:36:16;3.93;;;3.23;;
291;SDS011;23311;48.776;9.162;2023-12-20T08:38:45;3.33;;;2.43;;
291;SDS011;23311;48.776;9.162;2023-12-20T08:41:13;5.20;;;2.70;;
291;SDS011;23311;48.776;9.162;2023-12-20T08:43:42;3.30;;;2.33;;
291;SDS011;23311;48.776;9.162;2023-12-20T08:46:10;2.50;;;2.23;;
291;SDS011;23311;48.776;9.162;2023-12-20T08:48:39;2.90;;;2.27;;
291;SDS011;23311;48.776;9.162;2023-12-20T08:51:07;3.67;;;2.70;;
291;SDS011;23311;48.776;9.162;2023-12-20T08:53:37;2.87;;;2.30;;
291;SDS011;23311;48.776;9.162;2023-12-20T08:56:06;2.80;;;2.13;;
291;SDS011;23311;48.776;9.162;2023-12-20T08:58:34;4.50;;;2.77;;
291;SDS011;23311;48.776;9.162;2023-12-20T09:01:02;8.20;;;4.87;;
291;SDS011;23311;48.776;9.162;2023-12-20T09:03:31;4.27;;;3.20;;
291;SDS011;23311;48.776;9.162;2023-12-20T09:05:59;3.67;;;3.53;;
291;SDS011;23311;48.776;9.162;2023-12-20T09:08:27;5.27;;;3.07;;
291;SDS011;23311;48.776;9.162;2023-12-20T09:10:57;5.13;;;4.27;;
291;SDS011;23311;48.776;9.162;2023-12-20T09:13:25;3.73;;;3.10;;
291;SDS011;23311;48.776;9.162;2023-12-20T09:15:55;3.20;;;2.60;;
291;SDS011;23311;48.776;9.162;2023-12-20T09:18:24;3.37;;;2.97;;
291;SDS011;23311;48.776;9.162;2023-12-20T09:20:52;3.13;;;2.90;;
291;SDS011;23311;48.776;9.162;2023-12-20T09:23:20;2.70;;;2.50;;
291;SDS011;23311;48.776;9.162;2023-12-20T09:25:48;2.80;;;2.60;;
291;SDS011;23311;48.776;9.162;2023-12-20T09:28:20;4.13;;;2.50;;
291;SDS011;23311;48.776;9.162;2023-12-20T09:30:48;3.90;;;2.37;;
291;SDS011;23311;48.776;9.162;2023-12-20T09:33:17;3.60;;;2.23;;
291;SDS011;23311;48.776;9.162;2023-12-20T09:35:45;6.00;;;2.63;;
291;SDS011;23311;48.776;9.162;2023-12-20T09:38:14;3.87;;;1.80;;
291;SDS011;23311;48.776;9.162;2023-12-20T09:40:43;5.20;;;1.67;;
291;SDS011;23311;48.776;9.162;2023-12-20T09:43:14;3.90;;;2.27;;
291;SDS011;23311;48.776;9.162;2023-12-20T09:45:45;3.90;;;2.00;;
291;SDS011;23311;48.776;9.162;2023-12-20T09:48:15;2.93;;;1.50;;
291;SDS011;23311;48.776;9.162;2023-12-20T09:50:46;2.90;;;1.30;;
291;SDS011;23311;48.776;9.162;2023-12-20T09:53:19;2.73;;;1.50;;
291;SDS011;23311;48.776;9.162;2023-12-20T09:55:49;2.40;;;1.37;;
291;SDS011;23311;48.776;9.162;2023-12-20T09:58:18;3.33;;;1.30;;
291;SDS011;23311;48.776;9.162;2023-12-20T10:00:48;6.07;;;1.20;;
291;SDS011;23311;48.776;9.162;2023-12-20T10:03:17;2.40;;;1.33;;
291;SDS011;23311;48.776;9.162;2023-12-20T10:05:52;3.70;;;1.33;;
291;SDS011;23311;48.776;9.162;2023-12-20T10:08:25;3.57;;;1.70;;
291;SDS011;23311;48.776;9.162;2023-12-20T10:10:53;5.30;;;1.30;;
291;SDS011;23311;48.776;9.162;2023-12-20T10:13:24;3.93;;;1.40;;
291;SDS011;23311;48.776;9.162;2023-12-20T10:15:54;2.90;;;1.50;;
291;SDS011;23311;48.776;9.162;2023-12-20T10:18:22;4.20;;;1.50;;
291;SDS011;23311;48.776;9.162;2023-12-20T10:21:02;4.43;;;1.80;;
291;SDS011;23311;48.776;9.162;2023-12-20T10:23:31;6.40;;;2.30;;
291;SDS011;23311;48.776;9.162;2023-12-20T10:25:59;7.17;;;1.60;;
291;SDS011;23311;48.776;9.162;2023-12-20T10:28:32;2.93;;;1.50;;
291;SDS011;23311;48.776;9.162;2023-12-20T10:31:03;2.13;;;0.90;;
291;SDS011;23311;48.776;9.162;2023-12-20T10:33:31;3.53;;;1.30;;
291;SDS011;23311;48.776;9.162;2023-12-20T10:35:59;4.73;;;1.20;;
291;SDS011;23311;48.776;9.162;2023-12-20T10:38:28;3.30;;;1.30;;
291;SDS011;23311;48.776;9.162;2023-12-20T10:40:57;5.50;;;1.43;;
291;SDS011;23311;48.776;9.162;2023-12-20T10:43:26;4.43;;;1.93;;
291;SDS011;23311;48.776;9.162;2023-12-20T10:45:57;4.30;;;1.00;;
291;SDS011;23311;48.776;9.162;2023-12-20T10:48:27;4.90;;;1.70;;
291;SDS011;23311;48.776;9.162;2023-12-20T10:50:57;1.43;;;1.00;;
291;SDS011;23311;48.776;9.162;2023-12-20T10:53:26;2.27;;;1.47;;
291;SDS011;23311;48.776;9.162;2023-12-20T10:55:55;2.90;;;1.43;;
291;SDS011;23311;48.776;9.162;2023-12-20T10:58:27;5.27;;;2.00;;
291;SDS011;23311;48.776;9.162;2023-12-20T11:01:00;4.60;;;2.20;;
291;SDS011;23311;48.776;9.162;2023-12-20T11:03:32;4.23;;;2.07;;
291;SDS011;23311;48.776;9.162;2023-12-20T11:06:04;5.57;;;2.50;;
291;SDS011;23311;48.776;9.162;2023-12-20T11:08:41;2.43;;;1.60;;
291;SDS011;23311;48.776;9.162;2023-12-20T11:11:14;2.87;;;1.50;;
291;SDS011;23311;48.776;9.162;2023-12-20T11:13:54;6.50;;;2.10;;
291;SDS011;23311;48.776;9.162;2023-12-20T11:16:26;3.20;;;1.23;;
291;SDS011;23311;48.776;9.162;2023-12-20T11:19:11;2.57;;;1.60;;
291;SDS011;23311;48.776;9.162;2023-12-20T11:21:41;2.60;;;1.60;;
291;SDS011;23311;48.776;9.162;2023-12-20T11:24:09;1.53;;;1.13;;
291;SDS011;23311;48.776;9.162;2023-12-20T11:26:37;2.30;;;1.20;;
291;SDS011;23311;48.776;9.162;2023-12-20T11:31:59;3.27;;;1.17;;
291;SDS011;23311;48.776;9.162;2023-12-20T11:34:31;7.17;;;1.73;;
291;SDS011;23311;48.776;9.162;2023-12-20T11:37:02;2.60;;;1.67;;
291;SDS011;23311;48.776;9.162;2023-12-20T11:39:30;6.80;;;1.67;;
291;SDS011;23311;48.776;9.162;2023-12-20T11:42:03;4.83;;;1.47;;
291;SDS011;23311;48.776;9.162;2023-12-20T11:44:34;6.53;;;1.70;;
291;SDS011;23311;48.776;9.162;2023-12-20T11:47:03;2.03;;;1.10;;
291;SDS011;23311;48.776;9.162;2023-12-20T11:49:33;4.40;;;1.50;;
291;SDS011;23311;48.776;9.162;2023-12-20T11:52:01;3.73;;;1.70;;
291;SDS011;23311;48.776;9.162;2023-12-20T11:54:29;4.10;;;1.40;;
291;SDS011;23311;48.776;9.162;2023-12-20T11:56:57;2.40;;;1.47;;
291;SDS011;23311;48.776;9.162;2023-12-20T11:59:26;5.97;;;1.67;;
291;SDS011;23311;48.776;9.162;2023-12-20T12:01:54;6.20;;;2.00;;
291;SDS011;23311;48.776;9.162;2023-12-20T12:04:27;3.57;;;1.87;;
291;SDS011;23311;48.776;9.162;2023-12-20T12:06:56;3.77;;;2.00;;
291;SDS011;23311;48.776;9.162;2023-12-20T12:09:25;3.53;;;1.53;;
291;SDS011;23311;48.776;9.162;2023-12-20T12:11:53;1.97;;;1.37;;
291;SDS011;23311;48.776;9.162;2023-12-20T12:14:21;3.87;;;1.47;;
291;SDS011;23311;48.776;9.162;2023-12-20T12:16:49;5.33;;;1.50;;
291;SDS011;23311;48.776;9.162;2023-12-20T12:19:20;6.53;;;1.90;;
291;SDS011;23311;48.776;9.162;2023-12-20T12:21:49;3.30;;;1.30;;
291;SDS011;23311;48.776;9.162;2023-12-20T12:24:21;2.50;;;1.10;;
291;SDS011;23311;48.776;9.162;2023-12-20T12:26:52;2.50;;;1.13;;
291;SDS011;23311;48.776;9.162;2023-12-20T12:29:20;3.87;;;1.30;;
291;SDS011;23311;48.776;9.162;2023-12-20T12:31:48;4.43;;;1.57;;
291;SDS011;23311;48.776;9.162;2023-12-20T12:34:16;3.53;;;1.20;;
291;SDS011;23311;48.776;9.162;2023-12-20T12:36:45;2.73;;;1.97;;
291;SDS011;23311;48.776;9.162;2023-12-20T12:39:15;2.40;;;1.70;;
291;SDS011;23311;48.776;9.162;2023-12-20T12:41:46;2.90;;;1.60;;
291;SDS011;23311;48.776;9.162;2023-12-20T12:44:14;4.90;;;2.17;;
291;SDS011;23311;48.776;9.162;2023-12-20T12:46:43;4.00;;;2.10;;
291;SDS011;23311;48.776;9.162;2023-12-20T12:49:12;3.23;;;1.83;;
291;SDS011;23311;48.776;9.162;2023-12-20T12:51:41;3.77;;;1.20;;
291;SDS011;23311;48.776;9.162;2023-12-20T12:54:10;2.37;;;1.57;;
291;SDS011;23311;48.776;9.162;2023-12-20T12:56:39;4.97;;;2.57;;
291;SDS011;23311;48.776;9.162;2023-12-20T12:59:09;5.37;;;1.67;;
291;SDS011;23311;48.776;9.162;2023-12-20T13:01:37;2.33;;;1.27;;
291;SDS011;23311;48.776;9.162;2023-12-20T13:04:06;4.80;;;1.60;;
291;SDS011;23311;48.776;9.162;2023-12-20T13:06:37;2.33;;;1.20;;
291;SDS011;23311;48.776;9.162;2023-12-20T13:09:07;4.77;;;2.17;;
291;SDS011;23311;48.776;9.162;2023-12-20T13:11:36;3.87;;;1.37;;
291;SDS011;23311;48.776;9.162;2023-12-20T13:14:04;4.00;;;1.33;;
291;SDS011;23311;48.776;9.162;2023-12-20T13:16:33;4.53;;;1.30;;
291;SDS011;23311;48.776;9.162;2023-12-20T13:19:02;3.10;;;0.97;;
291;SDS011;23311;48.776;9.162;2023-12-20T13:21:30;2.37;;;1.00;;
291;SDS011;23311;48.776;9.162;2023-12-20T13:23:58;7.17;;;1.70;;
291;SDS011;23311;48.776;9.162;2023-12-20T13:26:27;2.83;;;1.30;;
291;SDS011;23311;48.776;9.162;2023-12-20T13:28:55;3.93;;;1.33;;
291;SDS011;23311;48.776;9.162;2023-12-20T13:31:23;3.63;;;1.30;;
291;SDS011;23311;48.776;9.162;2023-12-20T13:33:53;2.27;;;1.30;;
291;SDS011;23311;48.776;9.162;2023-12-20T13:36:21;2.60;;;1.07;;
291;SDS011;23311;48.776;9.162;2023-12-20T13:38:49;4.13;;;1.00;;
291;SDS011;23311;48.776;9.162;2023-12-20T13:41:17;1.70;;;0.73;;
291;SDS011;23311;48.776;9.162;2023-12-20T13:43:45;1.47;;;0.80;;
291;SDS011;23311;48.776;9.162;2023-12-20T13:46:13;2.30;;;1.10;;
291;SDS011;23311;48.776;9.162;2023-12-20T13:48:42;2.53;;;0.80;;
291;SDS011;23311;48.776;9.162;2023-12-20T13:51:11;4.50;;;1.03;;
291;SDS011;23311;48.776;9.162;2023-12-20T13:53:39;3.60;;;1.10;;
291;SDS011;23311;48.776;9.162;2023-12-20T13:56:07;2.50;;;1.20;;
291;SDS011;23311;48.776;9.162;2023-12-20T13:58:35;2.70;;;0.87;;
291;SDS011;23311;48.776;9.162;2023-12-20T14:01:04;4.70;;;1.77;;
291;SDS011;23311;48.776;9.162;2023-12-20T14:03:32;4.20;;;1.40;;
291;SDS011;23311;48.776;9.162;2023-12-20T14:06:00;2.27;;;0.90;;
291;SDS011;23311;48.776;9.162;2023-12-20T14:08:30;4.47;;;1.13;;
291;SDS011;23311;48.776;9.162;2023-12-20T14:10:58;3.53;;;1.23;;
291;SDS011;23311;48.776;9.162;2023-12-20T14:13:27;3.97;;;1.60;;
291;SDS011;23311;48.776;9.162;2023-12-20T14:15:56;4.83;;;1.30;;
291;SDS011;23311;48.776;9.162;2023-12-20T14:18:25;3.03;;;1.17;;
291;SDS011;23311;48.776;9.162;2023-12-20T14:20:53;5.63;;;3.40;;
291;SDS011;23311;48.776;9.162;2023-12-20T14:23:21;4.43;;;1.33;;
291;SDS011;23311;48.776;9.162;2023-12-20T14:25:51;3.63;;;1.07;;
291;SDS011;23311;48.776;9.162;2023-12-20T14:28:19;2.30;;;1.60;;
291;SDS011;23311;48.776;9.162;2023-12-20T14:30:47;2.57;;;1.73;;
291;SDS011;23311;48.776;9.162;2023-12-20T14:33:16;7.97;;;1.80;;
291;SDS011;23311;48.776;9.162;2023-12-20T14:35:47;6.70;;;1.80;;
291;SDS011;23311;48.776;9.162;2023-12-20T14:38:15;2.57;;;1.17;;
291;SDS011;23311;48.776;9.162;2023-12-20T14:40:43;4.13;;;1.57;;
291;SDS011;23311;48.776;9.162;2023-12-20T14:43:12;3.77;;;1.37;;
291;SDS011;23311;48.776;9.162;2023-12-20T14:45:41;4.83;;;1.30;;
291;SDS011;23311;48.776;9.162;2023-12-20T14:48:09;2.43;;;1.17;;
291;SDS011;23311;48.776;9.162;2023-12-20T14:50:37;3.27;;;1.60;;
291;SDS011;23311;48.776;9.162;2023-12-20T14:53:07;4.80;;;1.63;;
291;SDS011;23311;48.776;9.162;2023-12-20T14:55:35;3.10;;;1.60;;
291;SDS011;23311;48.776;9.162;2023-12-20T14:58:03;2.77;;;1.23;;
291;SDS011;23311;48.776;9.162;2023-12-20T15:00:33;2.70;;;1.30;;
291;SDS011;23311;48.776;9.162;2023-12-20T15:03:01;3.63;;;1.67;;
291;SDS011;23311;48.776;9.162;2023-12-20T15:05:31;3.77;;;1.13;;
291;SDS011;23311;48.776;9.162;2023-12-20T15:07:59;5.03;;;1.40;;
291;SDS011;23311;48.776;9.162;2023-12-20T15:10:27;2.80;;;1.40;;
291;SDS011;23311;48.776;9.162;2023-12-20T15:12:57;5.73;;;1.77;;
291;SDS011;23311;48.776;9.162;2023-12-20T15:15:25;4.10;;;1.53;;
291;SDS011;23311;48.776;9.162;2023-12-20T15:17:56;2.77;;;1.00;;
291;SDS011;23311;48.776;9.162;2023-12-20T15:20:24;2.97;;;1.30;;
291;SDS011;23311;48.776;9.162;2023-12-20T15:22:52;5.90;;;1.90;;
291;SDS011;23311;48.776;9.162;2023-12-20T15:25:21;3.47;;;1.60;;
291;SDS011;23311;48.776;9.162;2023-12-20T15:27:49;3.90;;;2.00;;
291;SDS011;23311;48.776;9.162;2023-12-20T15:30:19;2.47;;;1.50;;